sensor_id;sensor_type;location;lat;lon;timestamp;pressure;altitude;pressure_sealevel;temperature;humidity
39129;BME280;24864;49.940;19.770;2022-07-29T00:00:21;98361.19;;;15.90;100.00
39129;BME280;24864;49.940;19.770;2022-07-29T00:03:03;98361.19;;;15.90;100.00
39129;BME280;24864;49.940;19.770;2022-07-29T00:05:31;98357.22;;;15.87;100.00
39129;BME280;24864;49.940;19.770;2022-07-29T00:08:00;98351.25;;;15.82;100.00
39129;BME280;24864;49.940;19.770;2022-07-29T00:10:28;98360.66;;;15.81;100.00
39129;BME280;24864;49.940;19.770;2022-07-29T00:12:56;98359.06;;;15.80;100.00
39129;BME280;24864;49.940;19.770;2022-07-29T00:15:24;98354.31;;;15.77;100.00
39129;BME280;24864;49.940;19.770;2022-07-29T00:17:52;98355.91;;;15.78;100.00
39129;BME280;24864;49.940;19.770;2022-07-29T00:20:20;98355.06;;;15.73;100.00
39129;BME280;24864;49.940;19.770;2022-07-29T00:22:49;98354.25;;;15.73;100.00
39129;BME280;24864;49.940;19.770;2022-07-29T00:25:18;98360.22;;;15.79;100.00
39129;BME280;24864;49.940;19.770;2022-07-29T00:27:46;98361.41;;;15.78;100.00
39129;BME280;24864;49.940;19.770;2022-07-29T00:30:15;98364.19;;;15.81;100.00
39129;BME280;24864;49.940;19.770;2022-07-29T00:32:43;98355.13;;;15.77;100.00
39129;BME280;24864;49.940;19.770;2022-07-29T00:35:11;98355.84;;;15.74;100.00
39129;BME280;24864;49.940;19.770;2022-07-29T00:38:01;98352.50;;;15.84;100.00
39129;BME280;24864;49.940;19.770;2022-07-29T00:40:31;98351.25;;;15.82;100.00
39129;BME280;24864;49.940;19.770;2022-07-29T00:42:59;98344.91;;;15.78;100.00
39129;BME280;24864;49.940;19.770;2022-07-29T00:45:28;98348.81;;;15.77;100.00
39129;BME280;24864;49.940;19.770;2022-07-29T00:47:57;98337.75;;;15.73;100.00
39129;BME280;24864;49.940;19.770;2022-07-29T00:50:25;98358.19;;;15.72;100.00
39129;BME280;24864;49.940;19.770;2022-07-29T00:52:53;98353.47;;;15.72;100.00
39129;BME280;24864;49.940;19.770;2022-07-29T00:55:22;98345.63;;;15.71;100.00
39129;BME280;24864;49.940;19.770;2022-07-29T00:57:51;98346.41;;;15.71;100.00
39129;BME280;24864;49.940;19.770;2022-07-29T01:00:21;98354.97;;;15.66;100.00
39129;BME280;24864;49.940;19.770;2022-07-29T01:02:50;98339.22;;;15.63;100.00
39129;BME280;24864;49.940;19.770;2022-07-29T01:05:20;98342.69;;;15.56;100.00
39129;BME280;24864;49.940;19.770;2022-07-29T01:07:51;98343.78;;;15.52;100.00
39129;BME280;24864;49.940;19.770;2022-07-29T01:10:21;98344.53;;;15.49;100.00
39129;BME280;24864;49.940;19.770;2022-07-29T01:12:52;98343.69;;;15.45;100.00
39129;BME280;24864;49.940;19.770;2022-07-29T01:15:21;98340.50;;;15.39;100.00
39129;BME280;24864;49.940;19.770;2022-07-29T01:17:52;98341.69;;;15.41;100.00
39129;BME280;24864;49.940;19.770;2022-07-29T01:20:26;98339.78;;;15.46;100.00
39129;BME280;24864;49.940;19.770;2022-07-29T01:23:12;98337.34;;;15.40;100.00
39129;BME280;24864;49.940;19.770;2022-07-29T01:26:04;98335.66;;;15.32;100.00
39129;BME280;24864;49.940;19.770;2022-07-29T01:28:52;98334.63;;;15.40;100.00
39129;BME280;24864;49.940;19.770;2022-07-29T01:31:28;98326.81;;;15.42;100.00
39129;BME280;24864;49.940;19.770;2022-07-29T01:34:05;98332.69;;;15.45;100.00
39129;BME280;24864;49.940;19.770;2022-07-29T01:36:37;98332.59;;;15.37;100.00
39129;BME280;24864;49.940;19.770;2022-07-29T01:39:11;98336.00;;;15.27;100.00
39129;BME280;24864;49.940;19.770;2022-07-29T01:41:57;98328.50;;;15.24;100.00
39129;BME280;24864;49.940;19.770;2022-07-29T01:44:31;98331.66;;;15.26;100.00
39129;BME280;24864;49.940;19.770;2022-07-29T01:47:05;98332.47;;;15.26;100.00
39129;BME280;24864;49.940;19.770;2022-07-29T01:49:41;98324.56;;;15.25;100.00
39129;BME280;24864;49.940;19.770;2022-07-29T01:52:15;98335.47;;;15.18;100.00
39129;BME280;24864;49.940;19.770;2022-07-29T01:54:52;98327.97;;;15.15;100.00
39129;BME280;24864;49.940;19.770;2022-07-29T01:57:26;98332.19;;;15.08;100.00
39129;BME280;24864;49.940;19.770;2022-07-29T01:59:58;98324.69;;;15.05;100.00
39129;BME280;24864;49.940;19.770;2022-07-29T02:02:28;98316.41;;;15.02;100.00
39129;BME280;24864;49.940;19.770;2022-07-29T02:05:00;98318.75;;;15.00;100.00
39129;BME280;24864;49.940;19.770;2022-07-29T02:07:31;98319.66;;;14.84;100.00
39129;BME280;24864;49.940;19.770;2022-07-29T02:10:01;98312.97;;;14.82;100.00
39129;BME280;24864;49.940;19.770;2022-07-29T02:12:31;98320.03;;;14.83;100.00
39129;BME280;24864;49.940;19.770;2022-07-29T02:15:03;98301.88;;;14.74;100.00
39129;BME280;24864;49.940;19.770;2022-07-29T02:17:35;98300.97;;;14.67;100.00
39129;BME280;24864;49.940;19.770;2022-07-29T02:20:08;98300.03;;;14.59;100.00
39129;BME280;24864;49.940;19.770;2022-07-29T02:22:38;98302.13;;;14.66;100.00
39129;BME280;24864;49.940;19.770;2022-07-29T02:25:08;98291.88;;;14.39;100.00
39129;BME280;24864;49.940;19.770;2022-07-29T02:27:41;98302.66;;;14.52;100.00
39129;BME280;24864;49.940;19.770;2022-07-29T02:30:12;98298.16;;;14.40;100.00
39129;BME280;24864;49.940;19.770;2022-07-29T02:32:41;98302.03;;;14.39;100.00
39129;BME280;24864;49.940;19.770;2022-07-29T02:35:14;98294.63;;;14.39;100.00
39129;BME280;24864;49.940;19.770;2022-07-29T02:37:44;98300.38;;;14.34;100.00
39129;BME280;24864;49.940;19.770;2022-07-29T02:40:34;98301.84;;;14.28;100.00
39129;BME280;24864;49.940;19.770;2022-07-29T02:43:05;98307.56;;;14.19;100.00
39129;BME280;24864;49.940;19.770;2022-07-29T02:45:36;98296.19;;;14.17;100.00
39129;BME280;24864;49.940;19.770;2022-07-29T02:48:07;98298.56;;;14.19;100.00
39129;BME280;24864;49.940;19.770;2022-07-29T02:50:43;98282.13;;;14.19;100.00
39129;BME280;24864;49.940;19.770;2022-07-29T02:53:15;98288.31;;;14.16;100.00
39129;BME280;24864;49.940;19.770;2022-07-29T02:55:48;98286.31;;;14.12;100.00
39129;BME280;24864;49.940;19.770;2022-07-29T02:58:24;98281.19;;;14.11;100.00
39129;BME280;24864;49.940;19.770;2022-07-29T03:00:57;98292.16;;;14.11;100.00
39129;BME280;24864;49.940;19.770;2022-07-29T03:03:29;98289.78;;;14.09;100.00
39129;BME280;24864;49.940;19.770;2022-07-29T03:05:59;98281.41;;;14.02;100.00
39129;BME280;24864;49.940;19.770;2022-07-29T03:08:29;98291.53;;;13.98;100.00
39129;BME280;24864;49.940;19.770;2022-07-29T03:10:57;98290.31;;;13.95;100.00
39129;BME280;24864;49.940;19.770;2022-07-29T03:13:27;98288.00;;;13.97;100.00
39129;BME280;24864;49.940;19.770;2022-07-29T03:15:58;98297.31;;;13.93;100.00
39129;BME280;24864;49.940;19.770;2022-07-29T03:18:27;98299.63;;;13.91;100.00
39129;BME280;24864;49.940;19.770;2022-07-29T03:20:55;98294.56;;;13.93;100.00
39129;BME280;24864;49.940;19.770;2022-07-29T03:23:23;98289.03;;;13.89;100.00
39129;BME280;24864;49.940;19.770;2022-07-29T03:26:01;98289.66;;;13.82;100.00
39129;BME280;24864;49.940;19.770;2022-07-29T03:28:29;98287.66;;;13.79;100.00
39129;BME280;24864;49.940;19.770;2022-07-29T03:30:58;98286.06;;;13.78;100.00
39129;BME280;24864;49.940;19.770;2022-07-29T03:33:27;98288.81;;;13.78;100.00
39129;BME280;24864;49.940;19.770;2022-07-29T03:35:57;98293.84;;;13.76;100.00
39129;BME280;24864;49.940;19.770;2022-07-29T03:38:27;98295.88;;;13.79;100.00
39129;BME280;24864;49.940;19.770;2022-07-29T03:41:00;98291.09;;;13.76;100.00
39129;BME280;24864;49.940;19.770;2022-07-29T03:43:30;98292.28;;;13.75;100.00
39129;BME280;24864;49.940;19.770;2022-07-29T03:46:02;98293.44;;;13.74;100.00
39129;BME280;24864;49.940;19.770;2022-07-29T03:48:36;98299.47;;;13.84;100.00
39129;BME280;24864;49.940;19.770;2022-07-29T03:51:07;98301.81;;;13.81;100.00
39129;BME280;24864;49.940;19.770;2022-07-29T03:53:35;98307.34;;;13.85;100.00
39129;BME280;24864;49.940;19.770;2022-07-29T03:56:06;98300.69;;;13.86;100.00
39129;BME280;24864;49.940;19.770;2022-07-29T03:58:34;98304.25;;;13.87;100.00
39129;BME280;24864;49.940;19.770;2022-07-29T04:01:04;98306.69;;;13.92;100.00
39129;BME280;24864;49.940;19.770;2022-07-29T04:03:32;98305.41;;;13.86;100.00
39129;BME280;24864;49.940;19.770;2022-07-29T04:06:03;98298.84;;;13.90;100.00
39129;BME280;24864;49.940;19.770;2022-07-29T04:08:33;98299.69;;;13.94;100.00
39129;BME280;24864;49.940;19.770;2022-07-29T04:11:01;98295.00;;;13.95;100.00
39129;BME280;24864;49.940;19.770;2022-07-29T04:13:29;98305.25;;;13.98;100.00
39129;BME280;24864;49.940;19.770;2022-07-29T04:15:58;98311.31;;;14.07;100.00
39129;BME280;24864;49.940;19.770;2022-07-29T04:18:27;98307.81;;;14.10;100.00
39129;BME280;24864;49.940;19.770;2022-07-29T04:20:55;98310.69;;;14.18;100.00
39129;BME280;24864;49.940;19.770;2022-07-29T04:23:25;98309.09;;;14.17;100.00
39129;BME280;24864;49.940;19.770;2022-07-29T04:25:53;98305.56;;;14.16;100.00
39129;BME280;24864;49.940;19.770;2022-07-29T04:28:21;98310.31;;;14.19;100.00
39129;BME280;24864;49.940;19.770;2022-07-29T04:30:49;98302.66;;;14.28;100.00
39129;BME280;24864;49.940;19.770;2022-07-29T04:33:17;98300.69;;;14.29;100.00
39129;BME280;24864;49.940;19.770;2022-07-29T04:35:46;98303.88;;;14.31;100.00
39129;BME280;24864;49.940;19.770;2022-07-29T04:38:18;98302.84;;;14.39;100.00
39129;BME280;24864;49.940;19.770;2022-07-29T04:40:46;98300.50;;;14.41;100.00
39129;BME280;24864;49.940;19.770;2022-07-29T04:43:15;98308.16;;;14.52;100.00
39129;BME280;24864;49.940;19.770;2022-07-29T04:45:49;98299.16;;;14.55;100.00
39129;BME280;24864;49.940;19.770;2022-07-29T04:48:17;98293.81;;;14.62;100.00
39129;BME280;24864;49.940;19.770;2022-07-29T04:50:51;98290.44;;;14.69;100.00
39129;BME280;24864;49.940;19.770;2022-07-29T04:53:19;98289.16;;;14.89;100.00
39129;BME280;24864;49.940;19.770;2022-07-29T04:55:47;98292.00;;;14.97;100.00
39129;BME280;24864;49.940;19.770;2022-07-29T04:58:15;98285.72;;;14.96;100.00
39129;BME280;24864;49.940;19.770;2022-07-29T05:00:43;98293.66;;;15.01;100.00
39129;BME280;24864;49.940;19.770;2022-07-29T05:03:11;98286.72;;;15.11;100.00
39129;BME280;24864;49.940;19.770;2022-07-29T05:05:39;98286.44;;;15.20;100.00
39129;BME280;24864;49.940;19.770;2022-07-29T05:08:08;98286.22;;;15.32;100.00
39129;BME280;24864;49.940;19.770;2022-07-29T05:10:36;98284.38;;;15.40;100.00
39129;BME280;24864;49.940;19.770;2022-07-29T05:13:05;98287.56;;;15.46;100.00
39129;BME280;24864;49.940;19.770;2022-07-29T05:15:34;98287.31;;;15.58;100.00
39129;BME280;24864;49.940;19.770;2022-07-29T05:18:03;98295.31;;;15.70;100.00
39129;BME280;24864;49.940;19.770;2022-07-29T05:20:31;98296.09;;;15.67;100.00
39129;BME280;24864;49.940;19.770;2022-07-29T05:23:01;98289.94;;;15.81;100.00
39129;BME280;24864;49.940;19.770;2022-07-29T05:25:31;98292.84;;;15.92;100.00
39129;BME280;24864;49.940;19.770;2022-07-29T05:28:10;98293.38;;;16.05;100.00
39129;BME280;24864;49.940;19.770;2022-07-29T05:30:38;98291.50;;;16.13;100.00
39129;BME280;24864;49.940;19.770;2022-07-29T05:33:06;98295.16;;;16.24;100.00
39129;BME280;24864;49.940;19.770;2022-07-29T05:35:54;98287.69;;;16.28;100.00
39129;BME280;24864;49.940;19.770;2022-07-29T05:38:26;98281.91;;;16.41;100.00
39129;BME280;24864;49.940;19.770;2022-07-29T05:40:57;98296.97;;;16.54;100.00
39129;BME280;24864;49.940;19.770;2022-07-29T05:43:26;98285.63;;;16.59;100.00
39129;BME280;24864;49.940;19.770;2022-07-29T05:45:54;98287.66;;;16.69;100.00
39129;BME280;24864;49.940;19.770;2022-07-29T05:48:22;98283.06;;;16.84;100.00
39129;BME280;24864;49.940;19.770;2022-07-29T05:50:51;98289.84;;;16.94;100.00
39129;BME280;24864;49.940;19.770;2022-07-29T05:53:19;98290.28;;;17.00;100.00
39129;BME280;24864;49.940;19.770;2022-07-29T05:55:47;98286.81;;;17.14;100.00
39129;BME280;24864;49.940;19.770;2022-07-29T05:58:16;98302.25;;;17.29;100.00
39129;BME280;24864;49.940;19.770;2022-07-29T06:00:44;98295.59;;;17.38;100.00
39129;BME280;24864;49.940;19.770;2022-07-29T06:03:12;98301.56;;;17.47;100.00
39129;BME280;24864;49.940;19.770;2022-07-29T06:05:41;98296.47;;;17.49;100.00
39129;BME280;24864;49.940;19.770;2022-07-29T06:08:09;98286.28;;;17.64;100.00
39129;BME280;24864;49.940;19.770;2022-07-29T06:10:36;98289.09;;;17.78;100.00
39129;BME280;24864;49.940;19.770;2022-07-29T06:13:05;98293.81;;;17.85;100.00
39129;BME280;24864;49.940;19.770;2022-07-29T06:15:34;98292.25;;;17.84;100.00
39129;BME280;24864;49.940;19.770;2022-07-29T06:18:02;98293.88;;;17.96;100.00
39129;BME280;24864;49.940;19.770;2022-07-29T06:20:31;98301.00;;;18.08;100.00
39129;BME280;24864;49.940;19.770;2022-07-29T06:22:59;98297.47;;;18.07;100.00
39129;BME280;24864;49.940;19.770;2022-07-29T06:25:27;98291.19;;;18.14;100.00
39129;BME280;24864;49.940;19.770;2022-07-29T06:27:56;98301.06;;;18.40;100.00
39129;BME280;24864;49.940;19.770;2022-07-29T06:30:24;98306.97;;;18.53;100.00
39129;BME280;24864;49.940;19.770;2022-07-29T06:32:54;98309.75;;;18.68;100.00
39129;BME280;24864;49.940;19.770;2022-07-29T06:35:22;98301.09;;;18.58;100.00
39129;BME280;24864;49.940;19.770;2022-07-29T06:38:08;98310.56;;;18.72;100.00
39129;BME280;24864;49.940;19.770;2022-07-29T06:40:56;98303.41;;;18.85;100.00
39129;BME280;24864;49.940;19.770;2022-07-29T06:43:34;98302.66;;;19.06;100.00
39129;BME280;24864;49.940;19.770;2022-07-29T06:46:20;98310.53;;;19.22;100.00
39129;BME280;24864;49.940;19.770;2022-07-29T06:48:51;98306.50;;;19.38;100.00
39129;BME280;24864;49.940;19.770;2022-07-29T06:51:20;98306.50;;;19.49;100.00
39129;BME280;24864;49.940;19.770;2022-07-29T06:53:51;98308.09;;;19.42;100.00
39129;BME280;24864;49.940;19.770;2022-07-29T06:56:27;98315.94;;;19.58;100.00
39129;BME280;24864;49.940;19.770;2022-07-29T06:58:55;98300.91;;;19.67;100.00
39129;BME280;24864;49.940;19.770;2022-07-29T07:01:23;98310.34;;;19.73;100.00
39129;BME280;24864;49.940;19.770;2022-07-29T07:03:53;98307.16;;;19.78;100.00
39129;BME280;24864;49.940;19.770;2022-07-29T07:06:21;98300.75;;;20.03;100.00
39129;BME280;24864;49.940;19.770;2022-07-29T07:08:48;98303.50;;;20.03;100.00
39129;BME280;24864;49.940;19.770;2022-07-29T07:11:16;98297.94;;;20.06;100.00
39129;BME280;24864;49.940;19.770;2022-07-29T07:13:45;98288.09;;;20.02;100.00
39129;BME280;24864;49.940;19.770;2022-07-29T07:16:12;98291.16;;;20.22;100.00
39129;BME280;24864;49.940;19.770;2022-07-29T07:18:40;98291.84;;;20.37;100.00
39129;BME280;24864;49.940;19.770;2022-07-29T07:21:10;98285.00;;;20.52;100.00
39129;BME280;24864;49.940;19.770;2022-07-29T07:23:45;98291.69;;;20.59;100.00
39129;BME280;24864;49.940;19.770;2022-07-29T07:26:13;98286.94;;;20.55;100.00
39129;BME280;24864;49.940;19.770;2022-07-29T07:28:41;98273.09;;;20.55;100.00
39129;BME280;24864;49.940;19.770;2022-07-29T07:31:09;98305.03;;;20.71;100.00
39129;BME280;24864;49.940;19.770;2022-07-29T07:33:37;98296.25;;;20.83;100.00
39129;BME280;24864;49.940;19.770;2022-07-29T07:36:05;98308.78;;;20.95;100.00
39129;BME280;24864;49.940;19.770;2022-07-29T07:38:34;98299.69;;;20.95;100.00
39129;BME280;24864;49.940;19.770;2022-07-29T07:41:02;98300.81;;;21.01;100.00
39129;BME280;24864;49.940;19.770;2022-07-29T07:43:30;98297.59;;;21.06;100.00
39129;BME280;24864;49.940;19.770;2022-07-29T07:45:58;98296.78;;;21.09;100.00
39129;BME280;24864;49.940;19.770;2022-07-29T07:48:26;98298.28;;;21.17;100.00
39129;BME280;24864;49.940;19.770;2022-07-29T07:50:54;98287.94;;;21.22;100.00
39129;BME280;24864;49.940;19.770;2022-07-29T07:53:22;98305.13;;;21.44;100.00
39129;BME280;24864;49.940;19.770;2022-07-29T07:55:52;98305.09;;;21.47;100.00
39129;BME280;24864;49.940;19.770;2022-07-29T07:58:36;98314.16;;;21.51;99.83
39129;BME280;24864;49.940;19.770;2022-07-29T08:01:05;98306.44;;;21.70;100.00
39129;BME280;24864;49.940;19.770;2022-07-29T08:03:33;98315.06;;;21.79;100.00
39129;BME280;24864;49.940;19.770;2022-07-29T08:06:01;98307.88;;;21.82;100.00
39129;BME280;24864;49.940;19.770;2022-07-29T08:08:30;98305.28;;;21.98;100.00
39129;BME280;24864;49.940;19.770;2022-07-29T08:10:59;98313.00;;;22.14;98.80
39129;BME280;24864;49.940;19.770;2022-07-29T08:13:36;98307.81;;;22.17;97.29
39129;BME280;24864;49.940;19.770;2022-07-29T08:16:06;98302.72;;;22.11;99.10
39129;BME280;24864;49.940;19.770;2022-07-29T08:18:44;98304.22;;;22.20;99.05
39129;BME280;24864;49.940;19.770;2022-07-29T08:21:13;98298.78;;;22.36;100.00
39129;BME280;24864;49.940;19.770;2022-07-29T08:23:43;98300.84;;;22.59;100.00
39129;BME280;24864;49.940;19.770;2022-07-29T08:26:28;98293.59;;;22.66;96.89
39129;BME280;24864;49.940;19.770;2022-07-29T08:28:56;98301.72;;;22.80;96.45
39129;BME280;24864;49.940;19.770;2022-07-29T08:31:23;98298.38;;;22.89;97.44
39129;BME280;24864;49.940;19.770;2022-07-29T08:33:52;98301.88;;;22.93;96.89
39129;BME280;24864;49.940;19.770;2022-07-29T08:36:20;98310.53;;;22.99;95.72
39129;BME280;24864;49.940;19.770;2022-07-29T08:38:48;98306.81;;;23.05;94.37
39129;BME280;24864;49.940;19.770;2022-07-29T08:41:17;98302.25;;;22.95;95.52
39129;BME280;24864;49.940;19.770;2022-07-29T08:43:47;98314.66;;;23.10;97.27
39129;BME280;24864;49.940;19.770;2022-07-29T08:46:15;98304.13;;;23.25;97.27
39129;BME280;24864;49.940;19.770;2022-07-29T08:48:44;98308.41;;;23.50;96.06
39129;BME280;24864;49.940;19.770;2022-07-29T08:51:13;98309.75;;;23.62;92.90
39129;BME280;24864;49.940;19.770;2022-07-29T08:53:43;98309.59;;;23.69;93.27
39129;BME280;24864;49.940;19.770;2022-07-29T08:56:13;98304.69;;;23.77;97.95
39129;BME280;24864;49.940;19.770;2022-07-29T08:58:41;98306.97;;;23.82;93.88
39129;BME280;24864;49.940;19.770;2022-07-29T09:01:21;98297.81;;;23.82;91.72
39129;BME280;24864;49.940;19.770;2022-07-29T09:04:03;98286.59;;;24.05;93.47
39129;BME280;24864;49.940;19.770;2022-07-29T09:06:37;98300.53;;;24.05;93.55
39129;BME280;24864;49.940;19.770;2022-07-29T09:09:07;98298.81;;;24.12;97.62
39129;BME280;24864;49.940;19.770;2022-07-29T09:11:36;98302.66;;;24.34;92.98
39129;BME280;24864;49.940;19.770;2022-07-29T09:14:04;98300.44;;;24.46;92.65
39129;BME280;24864;49.940;19.770;2022-07-29T09:16:50;98289.63;;;24.64;92.33
39129;BME280;24864;49.940;19.770;2022-07-29T09:19:24;98296.28;;;24.70;92.26
39129;BME280;24864;49.940;19.770;2022-07-29T09:21:53;98290.56;;;24.91;93.44
39129;BME280;24864;49.940;19.770;2022-07-29T09:24:38;98283.69;;;24.95;92.02
39129;BME280;24864;49.940;19.770;2022-07-29T09:27:11;98289.66;;;25.10;89.11
39129;BME280;24864;49.940;19.770;2022-07-29T09:29:45;98280.28;;;25.04;89.52
39129;BME280;24864;49.940;19.770;2022-07-29T09:32:14;98279.19;;;25.14;88.51
39129;BME280;24864;49.940;19.770;2022-07-29T09:34:42;98288.81;;;25.43;87.58
39129;BME280;24864;49.940;19.770;2022-07-29T09:37:10;98285.16;;;25.46;88.03
39129;BME280;24864;49.940;19.770;2022-07-29T09:39:39;98282.44;;;25.42;87.26
39129;BME280;24864;49.940;19.770;2022-07-29T09:42:13;98274.53;;;25.41;86.21
39129;BME280;24864;49.940;19.770;2022-07-29T09:44:44;98275.31;;;25.41;84.83
39129;BME280;24864;49.940;19.770;2022-07-29T09:47:12;98272.06;;;25.43;86.24
39129;BME280;24864;49.940;19.770;2022-07-29T09:49:52;98266.47;;;25.43;85.23
39129;BME280;24864;49.940;19.770;2022-07-29T09:52:21;98266.06;;;25.44;86.83
39129;BME280;24864;49.940;19.770;2022-07-29T09:54:49;98257.44;;;25.39;86.51
39129;BME280;24864;49.940;19.770;2022-07-29T09:57:26;98259.41;;;25.68;85.10
39129;BME280;24864;49.940;19.770;2022-07-29T09:59:59;98252.50;;;25.85;82.59
39129;BME280;24864;49.940;19.770;2022-07-29T10:02:28;98251.59;;;25.88;84.42
39129;BME280;24864;49.940;19.770;2022-07-29T10:04:59;98251.31;;;26.12;87.57
39129;BME280;24864;49.940;19.770;2022-07-29T10:07:43;98261.69;;;26.24;83.46
39129;BME280;24864;49.940;19.770;2022-07-29T10:10:22;98249.84;;;26.20;81.82
39129;BME280;24864;49.940;19.770;2022-07-29T10:12:54;98249.19;;;26.29;83.61
39129;BME280;24864;49.940;19.770;2022-07-29T10:15:27;98237.97;;;26.42;81.33
39129;BME280;24864;49.940;19.770;2022-07-29T10:17:55;98244.00;;;26.53;82.45
39129;BME280;24864;49.940;19.770;2022-07-29T10:20:27;98254.81;;;26.77;79.82
39129;BME280;24864;49.940;19.770;2022-07-29T10:22:56;98255.69;;;26.87;80.88
39129;BME280;24864;49.940;19.770;2022-07-29T10:25:25;98250.78;;;26.78;77.31
39129;BME280;24864;49.940;19.770;2022-07-29T10:27:54;98247.53;;;26.80;77.37
39129;BME280;24864;49.940;19.770;2022-07-29T10:30:23;98248.41;;;26.89;79.52
39129;BME280;24864;49.940;19.770;2022-07-29T10:33:01;98241.66;;;27.00;80.99
39129;BME280;24864;49.940;19.770;2022-07-29T10:35:45;98243.72;;;27.08;78.04
39129;BME280;24864;49.940;19.770;2022-07-29T10:38:42;98244.19;;;27.07;80.83
39129;BME280;24864;49.940;19.770;2022-07-29T10:44:21;98241.13;;;26.44;79.98
39129;BME280;24864;49.940;19.770;2022-07-29T10:46:51;98239.78;;;26.36;78.61
39129;BME280;24864;49.940;19.770;2022-07-29T10:49:22;98242.78;;;26.41;81.30
39129;BME280;24864;49.940;19.770;2022-07-29T10:51:54;98238.22;;;26.09;78.99
39129;BME280;24864;49.940;19.770;2022-07-29T10:54:43;98233.94;;;26.43;79.98
39129;BME280;24864;49.940;19.770;2022-07-29T10:57:19;98228.94;;;26.38;79.91
39129;BME280;24864;49.940;19.770;2022-07-29T11:00:26;98227.13;;;26.31;79.86
39129;BME280;24864;49.940;19.770;2022-07-29T11:02:54;98221.91;;;26.20;79.64
39129;BME280;24864;49.940;19.770;2022-07-29T11:05:25;98229.59;;;26.03;82.75
39129;BME280;24864;49.940;19.770;2022-07-29T11:08:21;98226.59;;;26.23;79.67
39129;BME280;24864;49.940;19.770;2022-07-29T11:14:17;98222.78;;;27.13;77.75
39129;BME280;24864;49.940;19.770;2022-07-29T11:17:02;98225.00;;;27.63;77.07
39129;BME280;24864;49.940;19.770;2022-07-29T11:19:33;98225.38;;;27.74;75.33
39129;BME280;24864;49.940;19.770;2022-07-29T11:22:08;98230.78;;;28.00;74.85
39129;BME280;24864;49.940;19.770;2022-07-29T11:24:38;98214.69;;;28.23;73.31
39129;BME280;24864;49.940;19.770;2022-07-29T11:27:17;98219.34;;;28.16;70.25
39129;BME280;24864;49.940;19.770;2022-07-29T11:29:52;98212.38;;;28.40;70.94
39129;BME280;24864;49.940;19.770;2022-07-29T11:32:22;98217.00;;;28.83;73.15
39129;BME280;24864;49.940;19.770;2022-07-29T11:35:15;98208.72;;;28.89;70.75
39129;BME280;24864;49.940;19.770;2022-07-29T11:37:45;98214.63;;;29.00;69.29
39129;BME280;24864;49.940;19.770;2022-07-29T11:40:22;98204.63;;;29.27;68.98
39129;BME280;24864;49.940;19.770;2022-07-29T11:42:51;98205.75;;;29.39;67.59
39129;BME280;24864;49.940;19.770;2022-07-29T11:45:25;98201.69;;;29.40;65.80
39129;BME280;24864;49.940;19.770;2022-07-29T11:48:18;98208.22;;;29.37;67.76
39129;BME280;24864;49.940;19.770;2022-07-29T11:50:56;98201.38;;;29.29;65.23
39129;BME280;24864;49.940;19.770;2022-07-29T11:53:24;98206.06;;;29.13;70.68
39129;BME280;24864;49.940;19.770;2022-07-29T11:56:00;98207.94;;;29.35;66.84
39129;BME280;24864;49.940;19.770;2022-07-29T11:58:30;98197.25;;;29.58;67.64
39129;BME280;24864;49.940;19.770;2022-07-29T12:00:58;98201.53;;;29.87;66.57
39129;BME280;24864;49.940;19.770;2022-07-29T12:03:31;98199.66;;;29.93;64.55
39129;BME280;24864;49.940;19.770;2022-07-29T12:06:04;98195.94;;;29.77;63.06
39129;BME280;24864;49.940;19.770;2022-07-29T12:08:40;98195.00;;;29.80;65.63
39129;BME280;24864;49.940;19.770;2022-07-29T12:11:16;98186.56;;;29.90;64.73
39129;BME280;24864;49.940;19.770;2022-07-29T12:13:48;98177.84;;;30.12;63.12
39129;BME280;24864;49.940;19.770;2022-07-29T12:16:16;98169.00;;;30.04;62.63
39129;BME280;24864;49.940;19.770;2022-07-29T12:18:56;98183.72;;;29.99;63.27
39129;BME280;24864;49.940;19.770;2022-07-29T12:21:25;98186.53;;;29.99;63.33
39129;BME280;24864;49.940;19.770;2022-07-29T12:23:56;98184.66;;;29.96;63.50
39129;BME280;24864;49.940;19.770;2022-07-29T12:26:48;98166.75;;;30.18;64.66
39129;BME280;24864;49.940;19.770;2022-07-29T12:29:17;98169.84;;;29.95;62.00
39129;BME280;24864;49.940;19.770;2022-07-29T12:32:02;98169.34;;;29.97;64.14
39129;BME280;24864;49.940;19.770;2022-07-29T12:34:31;98172.00;;;30.25;62.62
39129;BME280;24864;49.940;19.770;2022-07-29T12:37:00;98166.50;;;30.06;61.77
39129;BME280;24864;49.940;19.770;2022-07-29T12:39:28;98167.44;;;30.03;62.72
39129;BME280;24864;49.940;19.770;2022-07-29T12:41:57;98166.03;;;29.65;62.36
39129;BME280;24864;49.940;19.770;2022-07-29T12:44:45;98155.53;;;29.23;64.78
39129;BME280;24864;49.940;19.770;2022-07-29T12:47:13;98158.50;;;29.19;64.59
39129;BME280;24864;49.940;19.770;2022-07-29T12:49:41;98143.66;;;29.18;64.81
39129;BME280;24864;49.940;19.770;2022-07-29T12:52:29;98155.72;;;28.73;67.10
39129;BME280;24864;49.940;19.770;2022-07-29T12:54:58;98142.63;;;28.60;66.79
39129;BME280;24864;49.940;19.770;2022-07-29T12:57:27;98151.47;;;28.59;65.05
39129;BME280;24864;49.940;19.770;2022-07-29T13:00:00;98153.19;;;28.56;66.75
39129;BME280;24864;49.940;19.770;2022-07-29T13:02:30;98151.44;;;28.21;68.32
39129;BME280;24864;49.940;19.770;2022-07-29T13:04:59;98157.22;;;28.27;66.09
39129;BME280;24864;49.940;19.770;2022-07-29T13:07:29;98150.84;;;28.36;65.61
39129;BME280;24864;49.940;19.770;2022-07-29T13:10:20;98147.44;;;28.41;66.98
39129;BME280;24864;49.940;19.770;2022-07-29T13:13:06;98151.31;;;28.44;65.28